sensor_id;sensor_type;location;lat;lon;timestamp;pressure;altitude;pressure_sealevel;temperature;humidity
12077;BME280;12420;42.676;23.262;2023-02-20T00:02:24;94907.94;;;11.21;74.52
12077;BME280;12420;42.676;23.262;2023-02-20T00:04:51;94894.63;;;11.01;75.14
12077;BME280;12420;42.676;23.262;2023-02-20T00:07:18;94880.63;;;11.12;78.16
12077;BME280;12420;42.676;23.262;2023-02-20T00:09:44;94897.09;;;11.42;78.69
12077;BME280;12420;42.676;23.262;2023-02-20T00:12:11;94893.78;;;11.44;75.42
12077;BME280;12420;42.676;23.262;2023-02-20T00:14:38;94904.78;;;11.49;75.02
12077;BME280;12420;42.676;23.262;2023-02-20T00:17:06;94890.34;;;11.38;78.21
12077;BME280;12420;42.676;23.262;2023-02-20T00:19:32;94897.38;;;11.39;76.00
12077;BME280;12420;42.676;23.262;2023-02-20T00:21:59;94887.81;;;11.40;76.09
12077;BME280;12420;42.676;23.262;2023-02-20T00:24:26;94893.34;;;11.40;76.59
12077;BME280;12420;42.676;23.262;2023-02-20T00:26:53;94899.56;;;11.46;77.26
12077;BME280;12420;42.676;23.262;2023-02-20T00:29:21;94891.25;;;11.46;77.95
12077;BME280;12420;42.676;23.262;2023-02-20T00:31:51;94876.41;;;11.43;76.99
12077;BME280;12420;42.676;23.262;2023-02-20T00:34:20;94886.16;;;11.50;75.77
12077;BME280;12420;42.676;23.262;2023-02-20T00:36:47;94884.22;;;11.45;75.95
12077;BME280;12420;42.676;23.262;2023-02-20T00:39:14;94878.97;;;11.22;76.59
12077;BME280;12420;42.676;23.262;2023-02-20T00:41:41;94844.63;;;11.12;77.31
12077;BME280;12420;42.676;23.262;2023-02-20T00:44:07;94869.97;;;11.35;78.75
12077;BME280;12420;42.676;23.262;2023-02-20T00:46:34;94867.00;;;11.14;78.51
12077;BME280;12420;42.676;23.262;2023-02-20T00:49:01;94893.34;;;11.21;80.59
12077;BME280;12420;42.676;23.262;2023-02-20T00:51:29;94905.41;;;11.23;78.66
12077;BME280;12420;42.676;23.262;2023-02-20T00:53:57;94905.63;;;10.88;78.84
12077;BME280;12420;42.676;23.262;2023-02-20T00:56:26;94898.75;;;10.94;80.92
12077;BME280;12420;42.676;23.262;2023-02-20T00:58:53;94904.72;;;10.98;81.02
12077;BME280;12420;42.676;23.262;2023-02-20T01:01:20;94897.53;;;10.90;79.81
12077;BME280;12420;42.676;23.262;2023-02-20T01:03:47;94922.06;;;10.80;80.19
12077;BME280;12420;42.676;23.262;2023-02-20T01:06:13;94917.19;;;10.67;81.33
12077;BME280;12420;42.676;23.262;2023-02-20T01:08:41;94934.94;;;10.77;81.43
12077;BME280;12420;42.676;23.262;2023-02-20T01:11:08;94924.28;;;10.62;81.67
12077;BME280;12420;42.676;23.262;2023-02-20T01:13:35;94926.41;;;10.75;82.52
12077;BME280;12420;42.676;23.262;2023-02-20T01:16:03;94935.41;;;10.81;83.53
12077;BME280;12420;42.676;23.262;2023-02-20T01:18:30;94937.34;;;10.86;81.98
12077;BME280;12420;42.676;23.262;2023-02-20T01:20:56;94934.78;;;10.89;83.38
12077;BME280;12420;42.676;23.262;2023-02-20T01:23:23;94926.56;;;10.83;82.33
12077;BME280;12420;42.676;23.262;2023-02-20T01:25:52;94937.19;;;10.79;81.86
12077;BME280;12420;42.676;23.262;2023-02-20T01:28:18;94944.16;;;10.85;83.26
12077;BME280;12420;42.676;23.262;2023-02-20T01:30:45;94918.84;;;10.76;83.31
12077;BME280;12420;42.676;23.262;2023-02-20T01:33:12;94933.84;;;10.61;82.73
12077;BME280;12420;42.676;23.262;2023-02-20T01:35:39;94956.63;;;10.73;83.43
12077;BME280;12420;42.676;23.262;2023-02-20T01:38:05;94928.84;;;10.60;83.46
12077;BME280;12420;42.676;23.262;2023-02-20T01:40:33;94954.38;;;10.72;83.05
12077;BME280;12420;42.676;23.262;2023-02-20T01:43:02;94958.56;;;10.78;83.08
12077;BME280;12420;42.676;23.262;2023-02-20T01:45:33;94962.75;;;10.41;86.21
12077;BME280;12420;42.676;23.262;2023-02-20T01:48:01;94974.56;;;10.42;87.05
12077;BME280;12420;42.676;23.262;2023-02-20T01:50:30;94977.97;;;10.24;89.20
12077;BME280;12420;42.676;23.262;2023-02-20T01:53:01;94957.81;;;9.98;92.38
12077;BME280;12420;42.676;23.262;2023-02-20T01:55:32;94977.75;;;9.86;93.59
12077;BME280;12420;42.676;23.262;2023-02-20T01:58:08;94981.84;;;9.73;95.21
12077;BME280;12420;42.676;23.262;2023-02-20T02:00:36;94936.16;;;9.31;96.92
12077;BME280;12420;42.676;23.262;2023-02-20T02:03:06;94983.97;;;9.62;96.71
12077;BME280;12420;42.676;23.262;2023-02-20T02:05:36;94979.28;;;9.45;97.84
12077;BME280;12420;42.676;23.262;2023-02-20T02:08:06;94978.00;;;9.46;96.67
12077;BME280;12420;42.676;23.262;2023-02-20T02:10:36;94961.34;;;9.16;97.21
12077;BME280;12420;42.676;23.262;2023-02-20T02:13:06;94981.38;;;9.28;96.62
12077;BME280;12420;42.676;23.262;2023-02-20T02:15:33;94991.38;;;9.31;96.22
12077;BME280;12420;42.676;23.262;2023-02-20T02:18:20;94951.50;;;9.26;96.03
12077;BME280;12420;42.676;23.262;2023-02-20T02:27:15;94977.53;;;9.42;92.45
12077;BME280;12420;42.676;23.262;2023-02-20T02:33:25;94989.16;;;9.71;92.22
12077;BME280;12420;42.676;23.262;2023-02-20T02:36:18;95004.16;;;9.81;90.23
12077;BME280;12420;42.676;23.262;2023-02-20T02:38:54;94992.88;;;9.79;89.80
12077;BME280;12420;42.676;23.262;2023-02-20T02:41:31;94985.94;;;9.67;90.03
12077;BME280;12420;42.676;23.262;2023-02-20T02:44:06;94987.69;;;9.70;90.06
12077;BME280;12420;42.676;23.262;2023-02-20T02:46:39;95002.66;;;9.39;91.56
12077;BME280;12420;42.676;23.262;2023-02-20T02:49:14;95001.63;;;9.47;91.73
12077;BME280;12420;42.676;23.262;2023-02-20T02:51:45;94991.28;;;9.53;91.31
12077;BME280;12420;42.676;23.262;2023-02-20T02:54:16;94985.09;;;9.36;90.86
12077;BME280;12420;42.676;23.262;2023-02-20T02:56:45;95003.16;;;9.43;91.24
12077;BME280;12420;42.676;23.262;2023-02-20T02:59:19;94999.63;;;9.42;91.67
12077;BME280;12420;42.676;23.262;2023-02-20T03:01:50;94941.81;;;9.03;91.93
12077;BME280;12420;42.676;23.262;2023-02-20T03:04:19;94967.91;;;9.07;91.32
12077;BME280;12420;42.676;23.262;2023-02-20T03:06:52;94971.09;;;9.23;92.52
12077;BME280;12420;42.676;23.262;2023-02-20T03:09:25;95006.41;;;9.41;90.76
12077;BME280;12420;42.676;23.262;2023-02-20T03:11:53;95006.63;;;9.49;91.23
12077;BME280;12420;42.676;23.262;2023-02-20T03:14:26;95016.72;;;9.41;90.87
12077;BME280;12420;42.676;23.262;2023-02-20T03:17:15;94992.88;;;9.38;91.49
12077;BME280;12420;42.676;23.262;2023-02-20T03:19:48;95009.19;;;9.35;89.80
12077;BME280;12420;42.676;23.262;2023-02-20T03:22:24;94993.72;;;9.16;89.57
12077;BME280;12420;42.676;23.262;2023-02-20T03:24:56;95021.00;;;9.36;89.15
12077;BME280;12420;42.676;23.262;2023-02-20T03:27:30;95015.97;;;9.40;89.21
12077;BME280;12420;42.676;23.262;2023-02-20T03:30:11;95033.06;;;9.33;89.21
12077;BME280;12420;42.676;23.262;2023-02-20T03:32:40;95038.63;;;9.27;89.64
12077;BME280;12420;42.676;23.262;2023-02-20T03:35:27;95022.59;;;9.15;89.97
12077;BME280;12420;42.676;23.262;2023-02-20T03:38:15;95026.84;;;9.21;89.85
12077;BME280;12420;42.676;23.262;2023-02-20T03:41:03;95039.13;;;9.26;89.16
12077;BME280;12420;42.676;23.262;2023-02-20T03:43:50;95036.06;;;9.35;89.64
12077;BME280;12420;42.676;23.262;2023-02-20T03:46:20;95044.88;;;9.33;89.73
12077;BME280;12420;42.676;23.262;2023-02-20T03:48:52;95056.25;;;9.19;88.27
12077;BME280;12420;42.676;23.262;2023-02-20T03:51:20;95048.97;;;9.10;89.34
12077;BME280;12420;42.676;23.262;2023-02-20T03:53:48;95035.69;;;9.03;89.78
12077;BME280;12420;42.676;23.262;2023-02-20T03:56:17;95048.94;;;9.21;88.69
12077;BME280;12420;42.676;23.262;2023-02-20T03:58:48;95060.06;;;8.99;87.53
12077;BME280;12420;42.676;23.262;2023-02-20T04:01:20;95069.81;;;9.17;88.95
12077;BME280;12420;42.676;23.262;2023-02-20T04:03:50;95081.78;;;9.36;87.74
12077;BME280;12420;42.676;23.262;2023-02-20T04:06:18;95049.84;;;9.46;84.73
12077;BME280;12420;42.676;23.262;2023-02-20T04:08:53;95078.88;;;9.70;83.73
12077;BME280;12420;42.676;23.262;2023-02-20T04:11:24;95060.78;;;9.16;85.97
12077;BME280;12420;42.676;23.262;2023-02-20T04:13:53;95078.50;;;9.38;84.80
12077;BME280;12420;42.676;23.262;2023-02-20T04:16:22;95082.59;;;9.20;85.80
12077;BME280;12420;42.676;23.262;2023-02-20T04:18:50;95071.28;;;9.18;85.62
12077;BME280;12420;42.676;23.262;2023-02-20T04:21:22;95070.53;;;9.23;85.86
12077;BME280;12420;42.676;23.262;2023-02-20T04:24:01;95050.78;;;8.96;86.15
12077;BME280;12420;42.676;23.262;2023-02-20T04:26:30;95075.41;;;8.72;90.60
12077;BME280;12420;42.676;23.262;2023-02-20T04:28:58;95086.97;;;8.76;90.34
12077;BME280;12420;42.676;23.262;2023-02-20T04:31:26;95069.66;;;8.58;91.91
12077;BME280;12420;42.676;23.262;2023-02-20T04:33:52;95088.44;;;8.60;91.76
12077;BME280;12420;42.676;23.262;2023-02-20T04:36:20;95094.97;;;8.62;91.26
12077;BME280;12420;42.676;23.262;2023-02-20T04:38:47;95098.72;;;8.65;88.70
12077;BME280;12420;42.676;23.262;2023-02-20T04:41:15;95087.22;;;8.55;89.53
12077;BME280;12420;42.676;23.262;2023-02-20T04:43:42;95021.25;;;8.07;88.50
12077;BME280;12420;42.676;23.262;2023-02-20T04:46:09;95082.47;;;8.50;85.98
12077;BME280;12420;42.676;23.262;2023-02-20T04:48:36;95063.66;;;8.43;86.56
12077;BME280;12420;42.676;23.262;2023-02-20T04:51:03;95083.44;;;8.69;83.54
12077;BME280;12420;42.676;23.262;2023-02-20T04:53:30;95069.66;;;8.58;84.23
12077;BME280;12420;42.676;23.262;2023-02-20T04:55:57;95082.19;;;8.76;83.61
12077;BME280;12420;42.676;23.262;2023-02-20T04:58:25;95069.16;;;8.54;82.93
12077;BME280;12420;42.676;23.262;2023-02-20T05:00:52;95092.97;;;8.52;82.57
12077;BME280;12420;42.676;23.262;2023-02-20T05:03:19;95098.50;;;8.57;82.71
12077;BME280;12420;42.676;23.262;2023-02-20T05:05:46;95042.81;;;8.19;81.34
12077;BME280;12420;42.676;23.262;2023-02-20T05:08:13;95105.75;;;8.55;80.90
12077;BME280;12420;42.676;23.262;2023-02-20T05:10:42;95122.84;;;8.47;79.07
12077;BME280;12420;42.676;23.262;2023-02-20T05:13:08;95097.75;;;8.40;79.46
12077;BME280;12420;42.676;23.262;2023-02-20T05:15:38;95123.84;;;8.50;78.50
12077;BME280;12420;42.676;23.262;2023-02-20T05:18:06;95124.59;;;8.45;78.86
12077;BME280;12420;42.676;23.262;2023-02-20T05:20:33;95117.75;;;8.29;79.59
12077;BME280;12420;42.676;23.262;2023-02-20T05:23:17;95130.84;;;8.40;79.41
12077;BME280;12420;42.676;23.262;2023-02-20T05:25:44;95131.31;;;8.38;79.25
12077;BME280;12420;42.676;23.262;2023-02-20T05:28:11;95131.13;;;8.47;79.10
12077;BME280;12420;42.676;23.262;2023-02-20T05:30:40;95130.59;;;8.43;79.18
12077;BME280;12420;42.676;23.262;2023-02-20T05:33:06;95114.50;;;8.25;80.65
12077;BME280;12420;42.676;23.262;2023-02-20T05:35:33;95148.34;;;8.31;81.96
12077;BME280;12420;42.676;23.262;2023-02-20T05:38:04;95152.13;;;8.22;83.79
12077;BME280;12420;42.676;23.262;2023-02-20T05:40:30;95130.53;;;8.04;83.87
12077;BME280;12420;42.676;23.262;2023-02-20T05:42:57;95158.38;;;8.17;85.08
12077;BME280;12420;42.676;23.262;2023-02-20T05:45:24;95136.78;;;7.99;85.42
12077;BME280;12420;42.676;23.262;2023-02-20T05:47:53;95155.63;;;8.17;85.92
12077;BME280;12420;42.676;23.262;2023-02-20T05:50:20;95152.63;;;8.32;84.76
12077;BME280;12420;42.676;23.262;2023-02-20T05:52:47;95153.88;;;8.31;84.47
12077;BME280;12420;42.676;23.262;2023-02-20T05:55:14;95158.91;;;8.27;85.07
12077;BME280;12420;42.676;23.262;2023-02-20T05:57:41;95148.34;;;8.37;84.95
12077;BME280;12420;42.676;23.262;2023-02-20T06:00:09;95146.41;;;8.60;83.29
12077;BME280;12420;42.676;23.262;2023-02-20T06:02:36;95139.38;;;8.70;80.87
12077;BME280;12420;42.676;23.262;2023-02-20T06:05:05;95119.31;;;8.64;79.50
12077;BME280;12420;42.676;23.262;2023-02-20T06:07:32;95154.41;;;9.03;75.88
12077;BME280;12420;42.676;23.262;2023-02-20T06:09:59;95155.66;;;9.19;74.80
12077;BME280;12420;42.676;23.262;2023-02-20T06:12:25;95160.13;;;9.33;73.77
12077;BME280;12420;42.676;23.262;2023-02-20T06:14:52;95174.94;;;9.35;71.61
12077;BME280;12420;42.676;23.262;2023-02-20T06:17:19;95174.19;;;9.41;71.95
12077;BME280;12420;42.676;23.262;2023-02-20T06:19:46;95176.91;;;9.57;71.65
12077;BME280;12420;42.676;23.262;2023-02-20T06:22:17;95181.13;;;9.75;71.54
12077;BME280;12420;42.676;23.262;2023-02-20T06:24:44;95167.00;;;9.90;69.82
12077;BME280;12420;42.676;23.262;2023-02-20T06:27:10;95163.47;;;9.95;69.56
12077;BME280;12420;42.676;23.262;2023-02-20T06:29:37;95177.16;;;10.24;68.27
12077;BME280;12420;42.676;23.262;2023-02-20T06:32:04;95183.97;;;10.17;66.21
12077;BME280;12420;42.676;23.262;2023-02-20T06:34:31;95177.41;;;9.62;67.40
12077;BME280;12420;42.676;23.262;2023-02-20T06:36:58;95176.88;;;9.74;67.62
12077;BME280;12420;42.676;23.262;2023-02-20T06:39:29;95207.44;;;9.99;66.79
12077;BME280;12420;42.676;23.262;2023-02-20T06:41:56;95220.31;;;9.85;67.13
12077;BME280;12420;42.676;23.262;2023-02-20T06:44:22;95207.59;;;9.37;68.93
12077;BME280;12420;42.676;23.262;2023-02-20T06:46:49;95223.44;;;9.25;69.58
12077;BME280;12420;42.676;23.262;2023-02-20T06:49:17;95215.41;;;9.27;69.23
12077;BME280;12420;42.676;23.262;2023-02-20T06:51:43;95206.13;;;9.25;69.19
12077;BME280;12420;42.676;23.262;2023-02-20T06:54:11;95214.91;;;9.12;70.56
12077;BME280;12420;42.676;23.262;2023-02-20T06:56:39;95201.88;;;9.01;71.75
12077;BME280;12420;42.676;23.262;2023-02-20T06:59:06;95191.06;;;8.86;71.94
12077;BME280;12420;42.676;23.262;2023-02-20T07:01:37;95204.38;;;9.05;71.73
12077;BME280;12420;42.676;23.262;2023-02-20T07:04:05;95214.66;;;9.16;69.28
12077;BME280;12420;42.676;23.262;2023-02-20T07:06:33;95217.16;;;9.30;67.71
12077;BME280;12420;42.676;23.262;2023-02-20T07:08:59;95223.72;;;9.16;68.14
12077;BME280;12420;42.676;23.262;2023-02-20T07:11:26;95228.47;;;9.16;67.37
12077;BME280;12420;42.676;23.262;2023-02-20T07:13:57;95220.69;;;9.08;65.78
12077;BME280;12420;42.676;23.262;2023-02-20T07:16:24;95239.25;;;9.02;65.46
12077;BME280;12420;42.676;23.262;2023-02-20T07:18:51;95179.78;;;9.07;64.94
12077;BME280;12420;42.676;23.262;2023-02-20T07:21:19;95244.75;;;9.36;63.17
12077;BME280;12420;42.676;23.262;2023-02-20T07:23:48;95235.19;;;9.54;61.99
12077;BME280;12420;42.676;23.262;2023-02-20T07:26:17;95242.00;;;9.47;61.67
12077;BME280;12420;42.676;23.262;2023-02-20T07:28:44;95264.09;;;9.36;60.94
12077;BME280;12420;42.676;23.262;2023-02-20T07:31:12;95256.06;;;9.44;61.00
12077;BME280;12420;42.676;23.262;2023-02-20T07:33:38;95244.00;;;9.41;60.84
12077;BME280;12420;42.676;23.262;2023-02-20T07:36:08;95250.56;;;9.27;60.75
12077;BME280;12420;42.676;23.262;2023-02-20T07:38:35;95251.81;;;9.09;61.29
12077;BME280;12420;42.676;23.262;2023-02-20T07:41:02;95240.78;;;9.03;60.87
12077;BME280;12420;42.676;23.262;2023-02-20T07:43:29;95241.00;;;9.28;59.83
12077;BME280;12420;42.676;23.262;2023-02-20T07:45:55;95252.31;;;9.24;60.01
12077;BME280;12420;42.676;23.262;2023-02-20T07:48:24;95260.09;;;9.31;60.17
12077;BME280;12420;42.676;23.262;2023-02-20T07:50:50;95263.84;;;9.23;60.09
12077;BME280;12420;42.676;23.262;2023-02-20T07:53:18;95243.03;;;9.10;60.60
12077;BME280;12420;42.676;23.262;2023-02-20T07:55:46;95279.44;;;9.31;60.89
12077;BME280;12420;42.676;23.262;2023-02-20T07:58:12;95243.53;;;9.20;60.00
12077;BME280;12420;42.676;23.262;2023-02-20T08:00:41;95276.66;;;9.26;59.81
12077;BME280;12420;42.676;23.262;2023-02-20T08:03:07;95244.78;;;9.08;60.19
12077;BME280;12420;42.676;23.262;2023-02-20T08:05:36;95248.81;;;9.29;59.75
12077;BME280;12420;42.676;23.262;2023-02-20T08:08:03;95255.53;;;9.56;58.20
12077;BME280;12420;42.676;23.262;2023-02-20T08:10:30;95250.28;;;9.64;56.96
12077;BME280;12420;42.676;23.262;2023-02-20T08:12:57;95258.28;;;9.68;56.47
12077;BME280;12420;42.676;23.262;2023-02-20T08:15:27;95259.25;;;9.82;56.42
12077;BME280;12420;42.676;23.262;2023-02-20T08:17:53;95282.06;;;10.05;56.05
12077;BME280;12420;42.676;23.262;2023-02-20T08:20:20;95281.59;;;10.00;56.27
12077;BME280;12420;42.676;23.262;2023-02-20T08:22:49;95243.75;;;9.45;57.08
12077;BME280;12420;42.676;23.262;2023-02-20T08:25:16;95292.19;;;9.74;56.91
12077;BME280;12420;42.676;23.262;2023-02-20T08:27:45;95338.19;;;9.66;57.44
12077;BME280;12420;42.676;23.262;2023-02-20T08:30:16;95285.47;;;9.19;59.09
12077;BME280;12420;42.676;23.262;2023-02-20T08:32:43;95321.63;;;9.43;58.59
12077;BME280;12420;42.676;23.262;2023-02-20T08:35:09;95293.97;;;9.49;58.62
12077;BME280;12420;42.676;23.262;2023-02-20T08:37:36;95282.94;;;9.49;58.72
12077;BME280;12420;42.676;23.262;2023-02-20T08:40:06;95247.78;;;9.32;59.04
12077;BME280;12420;42.676;23.262;2023-02-20T08:42:33;95274.38;;;9.69;58.79
12077;BME280;12420;42.676;23.262;2023-02-20T08:45:00;95210.84;;;9.41;57.94
12077;BME280;12420;42.676;23.262;2023-02-20T08:47:28;95276.81;;;10.01;56.43
12077;BME280;12420;42.676;23.262;2023-02-20T08:49:55;95269.06;;;9.88;56.97
12077;BME280;12420;42.676;23.262;2023-02-20T08:52:23;95255.94;;;9.94;57.30
12077;BME280;12420;42.676;23.262;2023-02-20T08:54:50;95282.16;;;9.71;56.61
12077;BME280;12420;42.676;23.262;2023-02-20T08:57:18;95245.50;;;9.53;56.29
12077;BME280;12420;42.676;23.262;2023-02-20T08:59:45;95272.13;;;9.68;57.12
12077;BME280;12420;42.676;23.262;2023-02-20T09:02:15;95258.28;;;9.73;56.98
12077;BME280;12420;42.676;23.262;2023-02-20T09:04:43;95245.47;;;9.59;56.27
12077;BME280;12420;42.676;23.262;2023-02-20T09:07:10;95250.97;;;9.76;56.81
12077;BME280;12420;42.676;23.262;2023-02-20T09:09:37;95246.94;;;9.88;57.11
12077;BME280;12420;42.676;23.262;2023-02-20T09:12:04;95261.72;;;9.96;56.19
12077;BME280;12420;42.676;23.262;2023-02-20T09:14:33;95291.41;;;9.96;55.75
12077;BME280;12420;42.676;23.262;2023-02-20T09:17:00;95255.53;;;9.68;56.31
12077;BME280;12420;42.676;23.262;2023-02-20T09:19:27;95248.41;;;10.00;56.31
12077;BME280;12420;42.676;23.262;2023-02-20T09:21:53;95253.88;;;10.17;55.08
12077;BME280;12420;42.676;23.262;2023-02-20T09:24:20;95260.72;;;9.99;56.39
12077;BME280;12420;42.676;23.262;2023-02-20T09:26:47;95256.91;;;10.14;56.23
12077;BME280;12420;42.676;23.262;2023-02-20T09:29:14;95263.66;;;10.24;55.71
12077;BME280;12420;42.676;23.262;2023-02-20T09:31:42;95256.84;;;10.36;55.62
12077;BME280;12420;42.676;23.262;2023-02-20T09:34:09;95272.41;;;10.39;55.51
12077;BME280;12420;42.676;23.262;2023-02-20T09:36:36;95206.09;;;10.17;55.30
12077;BME280;12420;42.676;23.262;2023-02-20T09:39:02;95274.00;;;10.76;55.10
12077;BME280;12420;42.676;23.262;2023-02-20T09:41:45;95234.44;;;10.81;54.45
12077;BME280;12420;42.676;23.262;2023-02-20T09:44:19;95244.03;;;10.22;54.52
12077;BME280;12420;42.676;23.262;2023-02-20T09:46:55;95247.03;;;10.35;55.64
12077;BME280;12420;42.676;23.262;2023-02-20T09:49:29;95266.06;;;10.50;55.02
12077;BME280;12420;42.676;23.262;2023-02-20T09:52:00;95257.00;;;10.55;54.75
12077;BME280;12420;42.676;23.262;2023-02-20T09:54:31;95224.88;;;10.35;54.42
12077;BME280;12420;42.676;23.262;2023-02-20T09:57:00;95249.78;;;10.35;53.05
12077;BME280;12420;42.676;23.262;2023-02-20T09:59:33;95256.59;;;10.34;52.29
12077;BME280;12420;42.676;23.262;2023-02-20T10:02:14;95254.81;;;10.37;51.36
12077;BME280;12420;42.676;23.262;2023-02-20T10:04:43;95254.31;;;10.33;51.15
12077;BME280;12420;42.676;23.262;2023-02-20T10:07:19;95290.78;;;10.37;50.64
12077;BME280;12420;42.676;23.262;2023-02-20T10:09:47;95256.66;;;10.12;50.10
12077;BME280;12420;42.676;23.262;2023-02-20T10:12:21;95217.22;;;10.06;50.71
12077;BME280;12420;42.676;23.262;2023-02-20T10:15:01;95249.13;;;10.65;49.99
12077;BME280;12420;42.676;23.262;2023-02-20T10:17:39;95265.41;;;10.38;48.96
12077;BME280;12420;42.676;23.262;2023-02-20T10:20:11;95196.84;;;10.03;47.71
12077;BME280;12420;42.676;23.262;2023-02-20T10:22:48;95251.00;;;10.51;46.50
12077;BME280;12420;42.676;23.262;2023-02-20T10:25:23;95222.69;;;10.28;46.21
12077;BME280;12420;42.676;23.262;2023-02-20T10:27:57;95263.09;;;10.48;46.05
12077;BME280;12420;42.676;23.262;2023-02-20T10:30:28;95237.41;;;10.53;47.12
12077;BME280;12420;42.676;23.262;2023-02-20T10:33:03;95222.53;;;10.56;46.38
12077;BME280;12420;42.676;23.262;2023-02-20T10:35:40;95223.91;;;10.74;46.35
12077;BME280;12420;42.676;23.262;2023-02-20T10:38:12;95165.16;;;10.57;46.43
12077;BME280;12420;42.676;23.262;2023-02-20T10:40:44;95243.53;;;10.76;46.45
12077;BME280;12420;42.676;23.262;2023-02-20T10:43:17;95171.88;;;10.67;46.14
12077;BME280;12420;42.676;23.262;2023-02-20T10:45:52;95208.88;;;11.00;46.47
12077;BME280;12420;42.676;23.262;2023-02-20T10:48:22;95223.97;;;10.99;46.33
12077;BME280;12420;42.676;23.262;2023-02-20T10:50:54;95211.56;;;10.75;47.57
12077;BME280;12420;42.676;23.262;2023-02-20T10:53:30;95206.72;;;10.87;48.45
12077;BME280;12420;42.676;23.262;2023-02-20T10:56:02;95200.19;;;11.15;47.30
12077;BME280;12420;42.676;23.262;2023-02-20T10:58:37;95170.97;;;11.14;47.97
12077;BME280;12420;42.676;23.262;2023-02-20T11:01:08;95182.59;;;11.37;46.48
12077;BME280;12420;42.676;23.262;2023-02-20T11:03:43;95208.25;;;11.67;46.43
12077;BME280;12420;42.676;23.262;2023-02-20T11:06:16;95207.91;;;11.77;46.85
12077;BME280;12420;42.676;23.262;2023-02-20T11:08:44;95210.09;;;11.59;46.72
12077;BME280;12420;42.676;23.262;2023-02-20T11:11:28;95192.72;;;11.59;46.28
12077;BME280;12420;42.676;23.262;2023-02-20T11:13:58;95218.19;;;11.57;46.64
12077;BME280;12420;42.676;23.262;2023-02-20T11:16:28;95190.06;;;11.72;47.09
12077;BME280;12420;42.676;23.262;2023-02-20T11:19:20;95213.47;;;11.77;46.10
12077;BME280;12420;42.676;23.262;2023-02-20T11:21:49;95213.16;;;11.31;46.95
12077;BME280;12420;42.676;23.262;2023-02-20T11:24:26;95185.00;;;10.97;47.74
12077;BME280;12420;42.676;23.262;2023-02-20T11:27:06;95173.56;;;11.06;48.34
12077;BME280;12420;42.676;23.262;2023-02-20T11:29:39;95212.38;;;11.61;48.42
12077;BME280;12420;42.676;23.262;2023-02-20T11:32:24;95206.88;;;11.80;47.86
12077;BME280;12420;42.676;23.262;2023-02-20T11:35:27;95225.72;;;11.87;46.67
12077;BME280;12420;42.676;23.262;2023-02-20T11:38:23;95202.28;;;11.82;46.85
12077;BME280;12420;42.676;23.262;2023-02-20T11:41:11;95197.31;;;11.75;46.68
12077;BME280;12420;42.676;23.262;2023-02-20T11:43:44;95199.75;;;11.84;46.54
12077;BME280;12420;42.676;23.262;2023-02-20T11:46:14;95152.59;;;11.41;46.76
12077;BME280;12420;42.676;23.262;2023-02-20T11:48:59;95197.63;;;11.71;46.56
12077;BME280;12420;42.676;23.262;2023-02-20T11:51:36;95169.19;;;11.16;46.85
12077;BME280;12420;42.676;23.262;2023-02-20T11:54:09;95160.50;;;11.56;46.42
12077;BME280;12420;42.676;23.262;2023-02-20T11:56:53;95175.50;;;11.66;46.45
12077;BME280;12420;42.676;23.262;2023-02-20T11:59:29;95130.56;;;11.24;46.47
12077;BME280;12420;42.676;23.262;2023-02-20T12:02:11;95182.69;;;11.56;45.82
12077;BME280;12420;42.676;23.262;2023-02-20T12:04:42;95173.72;;;11.44;46.13
12077;BME280;12420;42.676;23.262;2023-02-20T12:07:26;95153.28;;;11.47;46.05
12077;BME280;12420;42.676;23.262;2023-02-20T12:09:55;95134.28;;;11.32;45.51
12077;BME280;12420;42.676;23.262;2023-02-20T12:12:25;95166.44;;;11.41;45.53
12077;BME280;12420;42.676;23.262;2023-02-20T12:14:55;95159.03;;;11.73;45.59
12077;BME280;12420;42.676;23.262;2023-02-20T12:17:28;95174.78;;;11.65;44.66
12077;BME280;12420;42.676;23.262;2023-02-20T12:20:03;95182.22;;;11.76;45.16
12077;BME280;12420;42.676;23.262;2023-02-20T12:22:34;95170.72;;;11.66;45.26
12077;BME280;12420;42.676;23.262;2023-02-20T12:25:22;95182.38;;;11.59;45.69
12077;BME280;12420;42.676;23.262;2023-02-20T12:28:00;95179.53;;;11.65;45.86
12077;BME280;12420;42.676;23.262;2023-02-20T12:30:43;95177.66;;;11.54;45.85
12077;BME280;12420;42.676;23.262;2023-02-20T12:33:35;95169.56;;;11.81;46.17
12077;BME280;12420;42.676;23.262;2023-02-20T12:36:19;95128.44;;;11.60;46.17
12077;BME280;12420;42.676;23.262;2023-02-20T12:38:56;95165.72;;;11.84;45.70
12077;BME280;12420;42.676;23.262;2023-02-20T12:41:30;95139.47;;;11.41;46.04
12077;BME280;12420;42.676;23.262;2023-02-20T12:47:02;95165.03;;;11.78;45.48
12077;BME280;12420;42.676;23.262;2023-02-20T12:49:46;95182.94;;;11.77;45.79
12077;BME280;12420;42.676;23.262;2023-02-20T12:52:28;95161.66;;;11.66;46.32
12077;BME280;12420;42.676;23.262;2023-02-20T12:55:05;95173.50;;;11.85;46.14
12077;BME280;12420;42.676;23.262;2023-02-20T12:57:43;95171.69;;;11.93;45.78
12077;BME280;12420;42.676;23.262;2023-02-20T13:00:22;95174.56;;;11.82;46.28
12077;BME280;12420;42.676;23.262;2023-02-20T13:02:57;95153.28;;;11.47;46.62
12077;BME280;12420;42.676;23.262;2023-02-20T13:05:26;95164.13;;;11.69;46.35
12077;BME280;12420;42.676;23.262;2023-02-20T13:07:54;95138.25;;;11.61;46.55
12077;BME280;12420;42.676;23.262;2023-02-20T13:10:26;95165.03;;;11.78;46.71
12077;BME280;12420;42.676;23.262;2023-02-20T13:12:54;95136.75;;;11.60;45.97
12077;BME280;12420;42.676;23.262;2023-02-20T13:15:32;95159.00;;;11.98;45.78
12077;BME280;12420;42.676;23.262;2023-02-20T13:18:08;95181.81;;;11.91;44.82
12077;BME280;12420;42.676;23.262;2023-02-20T13:20:44;95154.31;;;11.68;45.37
12077;BME280;12420;42.676;23.262;2023-02-20T13:23:27;95136.97;;;11.62;44.92
12077;BME280;12420;42.676;23.262;2023-02-20T13:25:56;95134.16;;;11.43;45.88
12077;BME280;12420;42.676;23.262;2023-02-20T13:28:41;95165.97;;;11.86;46.75